Time;durP1;ratioP1;P1;durP2;ratioP2;P2;SDS_P1;SDS_P2;PMS_P1;PMS_P2;Temp;Humidity;BMP_temperature;BMP_pressure;BME280_temperature;BME280_humidity;BME280_pressure;Samples;Min_cycle;Max_cycle;Signal;HPM_P1;HPM_P2
2023/09/16 00:02:16;;;;;;;;;;;14.10;99.90;;;;;;4951592;29;19930;-31
2023/09/16 00:04:43;;;;;;;;;;;14.10;99.90;;;;;;4967311;28;19934;-32
2023/09/16 00:07:11;;;;;;;;;;;14.10;99.90;;;;;;4954767;28;19934;-31
2023/09/16 00:09:38;;;;;;;;;;;14.10;99.90;;;;;;4966666;28;19934;-32
2023/09/16 00:12:05;;;;;;;;;;;14.00;99.90;;;;;;4951866;29;19926;-31
2023/09/16 00:14:31;;;;;;;;;;;14.00;99.90;;;;;;4968342;28;20425;-33
2023/09/16 00:17:00;;;;;;;;;;;14.00;99.90;;;;;;4968843;28;20347;-33
2023/09/16 00:19:27;;;;;;;;;;;13.90;99.90;;;;;;4968301;28;19927;-32
2023/09/16 00:21:54;;;;;;;;;;;13.90;99.90;;;;;;4952489;29;20383;-30
2023/09/16 00:24:22;;;;;;;;;;;13.90;99.90;;;;;;4953776;29;20017;-31
2023/09/16 00:26:48;;;;;;;;;;;13.90;99.90;;;;;;4968216;28;19926;-31
2023/09/16 00:29:16;;;;;;;;;;;13.90;99.90;;;;;;4954077;28;19937;-32
2023/09/16 00:31:42;;;;;;;;;;;13.80;99.90;;;;;;4973838;28;20382;-31
2023/09/16 00:34:09;;;;;;;;;;;13.80;99.90;;;;;;4958578;29;19927;-31
2023/09/16 00:36:36;;;;;;;;;;;13.80;99.90;;;;;;4957769;29;19933;-31
2023/09/16 00:39:02;;;;;;;;;;;13.80;99.90;;;;;;4973460;28;20028;-31
2023/09/16 00:41:30;;;;;;;;;;;13.80;99.90;;;;;;4956501;28;19974;-31
2023/09/16 00:43:57;;;;;;;;;;;13.70;99.90;;;;;;4964311;28;19973;-33
2023/09/16 00:46:24;;;;;;;;;;;13.70;99.90;;;;;;4976731;28;19930;-32
2023/09/16 00:48:51;;;;;;;;;;;13.70;99.90;;;;;;4979200;28;19967;-31
2023/09/16 00:51:19;;;;;;;;;;;13.70;99.90;;;;;;4975480;28;20087;-32
2023/09/16 00:53:46;;;;;;;;;;;13.70;99.90;;;;;;4977739;28;19938;-33
2023/09/16 00:56:12;;;;;;;;;;;13.70;99.90;;;;;;4977709;28;19926;-32
2023/09/16 00:58:41;;;;;;;;;;;13.70;99.90;;;;;;4979382;28;19973;-33
2023/09/16 01:01:07;;;;;;;;;;;13.60;99.90;;;;;;4977190;28;20402;-33
2023/09/16 01:03:36;;;;;;;;;;;13.60;99.90;;;;;;4976316;28;19926;-32
2023/09/16 01:06:03;;;;;;;;;;;13.60;99.90;;;;;;4977691;28;19981;-31
2023/09/16 01:08:30;;;;;;;;;;;13.60;99.90;;;;;;4978153;28;19926;-32
2023/09/16 01:10:56;;;;;;;;;;;13.60;99.90;;;;;;4978779;28;19969;-32
2023/09/16 01:13:23;;;;;;;;;;;13.60;99.90;;;;;;4978209;28;19926;-31
2023/09/16 01:15:53;;;;;;;;;;;13.60;99.90;;;;;;4977415;28;19984;-32
2023/09/16 01:18:22;;;;;;;;;;;13.50;99.90;;;;;;4961653;28;19932;-32
2023/09/16 01:20:48;;;;;;;;;;;13.60;99.90;;;;;;4977962;28;19974;-32
2023/09/16 01:23:18;;;;;;;;;;;13.50;99.90;;;;;;4977732;28;20402;-32
2023/09/16 01:25:46;;;;;;;;;;;13.50;99.90;;;;;;4977697;28;20007;-31
2023/09/16 01:28:12;;;;;;;;;;;13.50;99.90;;;;;;4975858;28;20346;-31
2023/09/16 01:30:40;;;;;;;;;;;13.50;99.90;;;;;;4975706;28;20351;-31
2023/09/16 01:33:09;;;;;;;;;;;13.50;99.90;;;;;;4977166;28;19926;-31
2023/09/16 01:35:37;;;;;;;;;;;13.50;99.90;;;;;;4979656;28;19929;-31
2023/09/16 01:38:04;;;;;;;;;;;13.50;99.90;;;;;;4977289;28;20489;-32
2023/09/16 01:40:30;;;;;;;;;;;13.40;99.90;;;;;;4976957;28;20339;-32
2023/09/16 01:42:59;;;;;;;;;;;13.40;99.90;;;;;;4973486;28;19996;-32
2023/09/16 01:45:28;;;;;;;;;;;13.40;99.90;;;;;;4975658;28;19966;-32
2023/09/16 01:47:54;;;;;;;;;;;13.40;99.90;;;;;;4969919;28;19977;-31
2023/09/16 01:50:21;;;;;;;;;;;13.40;99.90;;;;;;4955886;29;19982;-31
2023/09/16 01:52:48;;;;;;;;;;;13.40;99.90;;;;;;4954459;29;19926;-31
2023/09/16 01:55:14;;;;;;;;;;;13.40;99.90;;;;;;4969283;28;19957;-31
2023/09/16 01:57:41;;;;;;;;;;;13.40;99.90;;;;;;4953786;28;19981;-31
2023/09/16 02:00:10;;;;;;;;;;;13.30;99.90;;;;;;4971290;28;19981;-31
2023/09/16 02:02:36;;;;;;;;;;;13.30;99.90;;;;;;4954914;29;19990;-31
2023/09/16 02:05:03;;;;;;;;;;;13.30;99.90;;;;;;4954409;29;19981;-31
2023/09/16 02:07:30;;;;;;;;;;;13.30;99.90;;;;;;4970210;28;19931;-30
2023/09/16 02:09:57;;;;;;;;;;;13.30;99.90;;;;;;4961646;28;19930;-32
2023/09/16 02:12:23;;;;;;;;;;;13.30;99.90;;;;;;4971505;28;20296;-31
2023/09/16 02:14:51;;;;;;;;;;;13.20;99.90;;;;;;4954673;29;20409;-31
2023/09/16 02:17:19;;;;;;;;;;;13.20;99.90;;;;;;4969247;28;19930;-31
2023/09/16 02:19:46;;;;;;;;;;;13.20;99.90;;;;;;4970346;28;19927;-31
2023/09/16 02:22:12;;;;;;;;;;;13.20;99.90;;;;;;4955045;28;19935;-30
2023/09/16 02:24:39;;;;;;;;;;;13.20;99.90;;;;;;4955491;28;19927;-30
2023/09/16 02:27:06;;;;;;;;;;;13.20;99.90;;;;;;4953610;29;19981;-30
2023/09/16 02:29:33;;;;;;;;;;;13.10;99.90;;;;;;4955014;29;19936;-31
2023/09/16 02:31:59;;;;;;;;;;;13.10;99.90;;;;;;4970360;28;20379;-31
2023/09/16 02:34:28;;;;;;;;;;;13.10;99.90;;;;;;4955453;28;19994;-32
2023/09/16 02:36:55;;;;;;;;;;;13.10;99.90;;;;;;4970720;28;19926;-31
2023/09/16 02:39:21;;;;;;;;;;;13.10;99.90;;;;;;4953858;29;20071;-33
2023/09/16 02:41:48;;;;;;;;;;;13.10;99.90;;;;;;4969955;28;19926;-32
2023/09/16 02:44:14;;;;;;;;;;;13.00;99.90;;;;;;4952334;29;19926;-31
2023/09/16 02:46:41;;;;;;;;;;;13.10;99.90;;;;;;4953572;29;20390;-31
2023/09/16 02:49:08;;;;;;;;;;;13.00;99.90;;;;;;4970293;28;19927;-31
2023/09/16 02:51:36;;;;;;;;;;;13.00;99.90;;;;;;4955595;29;19927;-31
2023/09/16 02:54:04;;;;;;;;;;;13.00;99.90;;;;;;4953605;28;19926;-30
2023/09/16 02:56:31;;;;;;;;;;;13.00;99.90;;;;;;4969463;28;19927;-31
2023/09/16 02:58:58;;;;;;;;;;;13.00;99.90;;;;;;4968380;28;20029;-31
2023/09/16 03:01:24;;;;;;;;;;;12.90;99.90;;;;;;4969282;28;19930;-31
2023/09/16 03:03:51;;;;;;;;;;;12.90;99.90;;;;;;4970902;28;19930;-31
2023/09/16 03:06:18;;;;;;;;;;;12.90;99.90;;;;;;4968955;28;19927;-31
2023/09/16 03:08:46;;;;;;;;;;;12.90;99.90;;;;;;4948978;28;19934;-32
2023/09/16 03:11:13;;;;;;;;;;;12.90;99.90;;;;;;4956546;28;20462;-32
2023/09/16 03:13:39;;;;;;;;;;;12.90;99.90;;;;;;4954521;29;19926;-31
2023/09/16 03:16:13;;;;;;;;;;;12.80;99.90;;;;;;4954920;28;20016;-31
2023/09/16 03:18:40;;;;;;;;;;;12.80;99.90;;;;;;4952375;29;19930;-30
2023/09/16 03:21:07;;;;;;;;;;;12.80;99.90;;;;;;4952438;29;19986;-30
2023/09/16 03:23:33;;;;;;;;;;;12.80;99.90;;;;;;4968995;28;19926;-31
2023/09/16 03:26:01;;;;;;;;;;;12.80;99.90;;;;;;4952496;29;19978;-32
2023/09/16 03:28:28;;;;;;;;;;;12.80;99.90;;;;;;4968933;28;19942;-31
2023/09/16 03:30:55;;;;;;;;;;;12.80;99.90;;;;;;4944521;29;19990;-32
2023/09/16 03:33:21;;;;;;;;;;;12.80;99.90;;;;;;4966154;28;19934;-31
2023/09/16 03:35:48;;;;;;;;;;;12.80;99.90;;;;;;4968972;28;19926;-32
2023/09/16 03:38:16;;;;;;;;;;;12.70;99.90;;;;;;4950340;29;19989;-32
2023/09/16 03:40:43;;;;;;;;;;;12.70;99.90;;;;;;4967890;28;19926;-32
2023/09/16 03:43:11;;;;;;;;;;;12.70;99.90;;;;;;4968339;28;20009;-31
2023/09/16 03:45:37;;;;;;;;;;;12.70;99.90;;;;;;4953013;29;20343;-31
2023/09/16 03:48:04;;;;;;;;;;;12.70;99.90;;;;;;4968984;28;19931;-31
2023/09/16 03:50:31;;;;;;;;;;;12.70;99.90;;;;;;4952743;29;19981;-32
2023/09/16 03:52:58;;;;;;;;;;;12.70;99.90;;;;;;4968402;28;19926;-31
2023/09/16 03:55:24;;;;;;;;;;;12.70;99.90;;;;;;4953005;29;20359;-31
2023/09/16 03:57:51;;;;;;;;;;;12.60;99.90;;;;;;4952388;29;19927;-32
2023/09/16 04:00:19;;;;;;;;;;;12.60;99.90;;;;;;4952394;29;20363;-32
2023/09/16 04:02:46;;;;;;;;;;;12.60;99.90;;;;;;4954368;28;19982;-31
2023/09/16 04:05:13;;;;;;;;;;;12.60;99.90;;;;;;4967686;28;20017;-31
2023/09/16 04:07:40;;;;;;;;;;;12.60;99.90;;;;;;4952270;29;19934;-31
2023/09/16 04:10:07;;;;;;;;;;;12.60;99.90;;;;;;4944143;28;20021;-32
2023/09/16 04:12:34;;;;;;;;;;;12.60;99.90;;;;;;4952009;29;19969;-31
2023/09/16 04:15:00;;;;;;;;;;;12.60;99.90;;;;;;4969082;28;19933;-32
2023/09/16 04:17:28;;;;;;;;;;;12.50;99.90;;;;;;4951449;29;19926;-32
2023/09/16 04:19:55;;;;;;;;;;;12.50;99.90;;;;;;4968021;28;19930;-32
2023/09/16 04:22:22;;;;;;;;;;;12.50;99.90;;;;;;4952960;29;19930;-32
2023/09/16 04:24:48;;;;;;;;;;;12.50;99.90;;;;;;4967828;28;19962;-32
2023/09/16 04:27:15;;;;;;;;;;;12.50;99.90;;;;;;4968411;28;19994;-32
2023/09/16 04:29:42;;;;;;;;;;;12.50;99.90;;;;;;4968295;28;19926;-31
2023/09/16 04:32:08;;;;;;;;;;;12.50;99.90;;;;;;4953560;28;19926;-31
2023/09/16 04:34:36;;;;;;;;;;;12.50;99.90;;;;;;4951539;28;19933;-31
2023/09/16 04:37:08;;;;;;;;;;;12.50;99.90;;;;;;4967291;28;19989;-32
2023/09/16 04:39:35;;;;;;;;;;;12.40;99.90;;;;;;4953761;28;20021;-33
2023/09/16 04:42:02;;;;;;;;;;;12.40;99.90;;;;;;4952849;29;19926;-34
2023/09/16 04:44:29;;;;;;;;;;;12.40;99.90;;;;;;4949306;29;20421;-32
2023/09/16 04:46:55;;;;;;;;;;;12.40;99.90;;;;;;4959260;28;19933;-31
2023/09/16 04:49:22;;;;;;;;;;;12.40;99.90;;;;;;4970902;28;19930;-31
2023/09/16 04:51:50;;;;;;;;;;;12.40;99.90;;;;;;4952798;29;19926;-31
2023/09/16 04:54:17;;;;;;;;;;;12.30;99.90;;;;;;4967964;28;19926;-31
2023/09/16 04:56:43;;;;;;;;;;;12.30;99.90;;;;;;4971383;28;19930;-32
2023/09/16 04:59:10;;;;;;;;;;;12.30;99.90;;;;;;4971784;28;19983;-32
2023/09/16 05:01:37;;;;;;;;;;;12.30;99.90;;;;;;4970040;28;19927;-31
2023/09/16 05:04:03;;;;;;;;;;;12.30;99.90;;;;;;4971620;28;19926;-30
2023/09/16 05:06:30;;;;;;;;;;;12.20;99.90;;;;;;4967229;28;19926;-31
2023/09/16 05:08:59;;;;;;;;;;;12.20;99.90;;;;;;4967592;28;19930;-31
2023/09/16 05:11:26;;;;;;;;;;;12.20;99.90;;;;;;4971212;28;19926;-30
2023/09/16 05:13:52;;;;;;;;;;;12.20;99.90;;;;;;4969981;28;19969;-32
2023/09/16 05:16:19;;;;;;;;;;;12.20;99.90;;;;;;4972475;28;20009;-30
2023/09/16 05:18:46;;;;;;;;;;;12.20;99.90;;;;;;4975637;28;19926;-31
2023/09/16 05:21:13;;;;;;;;;;;12.20;99.90;;;;;;4975408;28;20013;-31
2023/09/16 05:23:39;;;;;;;;;;;12.20;99.90;;;;;;4973494;28;19926;-31
2023/09/16 05:26:09;;;;;;;;;;;12.20;99.90;;;;;;4974551;28;19993;-30
2023/09/16 05:28:35;;;;;;;;;;;12.20;99.90;;;;;;4974747;28;19926;-32
2023/09/16 05:31:03;;;;;;;;;;;12.10;99.90;;;;;;4975296;28;19970;-32
2023/09/16 05:33:30;;;;;;;;;;;12.20;99.90;;;;;;4972239;28;19926;-32
2023/09/16 05:35:57;;;;;;;;;;;12.10;99.90;;;;;;4975317;28;20354;-31
2023/09/16 05:38:23;;;;;;;;;;;12.10;99.90;;;;;;4973977;28;20392;-31
2023/09/16 05:40:50;;;;;;;;;;;12.20;99.90;;;;;;4975244;28;19930;-31
2023/09/16 05:43:18;;;;;;;;;;;12.20;99.90;;;;;;4973226;28;19926;-31
2023/09/16 05:45:51;;;;;;;;;;;12.20;99.90;;;;;;4970356;28;19926;-31
2023/09/16 05:48:18;;;;;;;;;;;12.20;99.90;;;;;;4974864;28;20387;-32
2023/09/16 05:50:45;;;;;;;;;;;12.20;99.90;;;;;;4972927;28;19985;-33
2023/09/16 05:53:11;;;;;;;;;;;12.20;99.90;;;;;;4973577;28;20024;-32
2023/09/16 05:55:38;;;;;;;;;;;12.20;99.90;;;;;;4972031;28;19926;-33
2023/09/16 05:58:06;;;;;;;;;;;12.20;99.90;;;;;;4972917;28;19926;-33
2023/09/16 06:00:34;;;;;;;;;;;12.20;99.90;;;;;;4971608;28;19926;-34
2023/09/16 06:03:01;;;;;;;;;;;12.20;99.90;;;;;;4972655;28;20421;-31
2023/09/16 06:05:29;;;;;;;;;;;12.20;99.90;;;;;;4972127;28;20274;-33
2023/09/16 06:07:56;;;;;;;;;;;12.30;99.90;;;;;;4966780;28;19927;-30
2023/09/16 06:10:22;;;;;;;;;;;12.30;99.90;;;;;;4974794;28;19933;-31
2023/09/16 06:12:49;;;;;;;;;;;12.30;99.90;;;;;;4957593;28;19933;-32
2023/09/16 06:15:16;;;;;;;;;;;12.30;99.90;;;;;;4972834;28;19972;-31
2023/09/16 06:17:44;;;;;;;;;;;12.30;99.90;;;;;;4971401;28;19934;-31
2023/09/16 06:20:10;;;;;;;;;;;12.40;99.90;;;;;;4973696;28;20001;-32
2023/09/16 06:22:37;;;;;;;;;;;12.40;99.90;;;;;;4973784;28;20341;-34
2023/09/16 06:25:04;;;;;;;;;;;12.50;99.90;;;;;;4972846;28;19928;-32
2023/09/16 06:27:31;;;;;;;;;;;12.50;99.90;;;;;;4972621;28;20409;-31
2023/09/16 06:29:57;;;;;;;;;;;12.60;99.90;;;;;;4973379;28;19989;-32
2023/09/16 06:32:24;;;;;;;;;;;12.70;99.90;;;;;;4973253;28;19934;-31
2023/09/16 06:34:52;;;;;;;;;;;12.80;99.90;;;;;;4973204;28;19926;-33
2023/09/16 06:37:18;;;;;;;;;;;12.90;99.90;;;;;;4951528;28;19927;-32
2023/09/16 06:39:47;;;;;;;;;;;13.00;99.90;;;;;;4974317;28;19980;-31
2023/09/16 06:42:17;;;;;;;;;;;13.10;99.90;;;;;;4974334;28;19926;-31
2023/09/16 06:44:43;;;;;;;;;;;13.20;99.90;;;;;;4972939;28;19989;-32
2023/09/16 06:47:10;;;;;;;;;;;13.30;99.90;;;;;;4970337;28;19973;-31
2023/09/16 06:49:37;;;;;;;;;;;13.40;99.90;;;;;;4970743;28;19930;-31
2023/09/16 06:52:05;;;;;;;;;;;13.50;99.90;;;;;;4972449;28;19981;-31
2023/09/16 06:54:32;;;;;;;;;;;13.70;99.90;;;;;;4972633;28;20477;-31
2023/09/16 06:57:00;;;;;;;;;;;13.80;99.90;;;;;;4954398;28;19927;-33
2023/09/16 06:59:28;;;;;;;;;;;13.90;99.90;;;;;;4972619;28;20023;-33
2023/09/16 07:01:55;;;;;;;;;;;14.10;99.90;;;;;;4970574;28;19930;-31
2023/09/16 07:04:22;;;;;;;;;;;14.20;99.90;;;;;;4970143;28;20015;-31
2023/09/16 07:06:48;;;;;;;;;;;14.40;99.90;;;;;;4966803;28;19929;-32
2023/09/16 07:09:16;;;;;;;;;;;14.50;99.90;;;;;;4971330;28;20346;-31
2023/09/16 07:11:43;;;;;;;;;;;14.70;99.90;;;;;;4953325;28;19926;-31
2023/09/16 07:14:09;;;;;;;;;;;14.80;99.90;;;;;;4970753;28;19977;-31
2023/09/16 07:16:38;;;;;;;;;;;14.90;99.90;;;;;;4973320;28;19926;-31
2023/09/16 07:19:04;;;;;;;;;;;15.00;99.90;;;;;;4972382;28;19934;-32
2023/09/16 07:21:31;;;;;;;;;;;15.20;99.90;;;;;;4972801;28;19926;-31
2023/09/16 07:24:00;;;;;;;;;;;15.40;99.90;;;;;;4970446;28;20512;-31
2023/09/16 07:26:28;;;;;;;;;;;15.50;99.90;;;;;;4972650;28;19926;-31
2023/09/16 07:28:55;;;;;;;;;;;15.60;99.90;;;;;;4972355;28;19926;-32
2023/09/16 07:31:22;;;;;;;;;;;15.70;99.90;;;;;;4970528;28;20032;-31
2023/09/16 07:33:48;;;;;;;;;;;15.90;99.90;;;;;;4970444;28;19938;-31
2023/09/16 07:36:15;;;;;;;;;;;16.00;99.90;;;;;;4972067;28;19930;-31
2023/09/16 07:38:42;;;;;;;;;;;16.10;99.90;;;;;;4971872;28;19997;-31
2023/09/16 07:41:09;;;;;;;;;;;16.30;99.90;;;;;;4972330;28;19926;-32
2023/09/16 07:43:37;;;;;;;;;;;16.40;99.90;;;;;;4971482;28;19926;-30
2023/09/16 07:46:03;;;;;;;;;;;16.60;99.90;;;;;;4972826;28;20437;-31
2023/09/16 07:48:31;;;;;;;;;;;16.80;99.90;;;;;;4971844;28;20441;-31
2023/09/16 07:50:57;;;;;;;;;;;17.00;99.90;;;;;;4967386;28;20445;-31
2023/09/16 07:53:24;;;;;;;;;;;17.20;99.90;;;;;;4951848;28;20378;-31
2023/09/16 07:55:51;;;;;;;;;;;17.40;99.90;;;;;;4954444;28;19926;-31
2023/09/16 07:58:17;;;;;;;;;;;17.70;99.90;;;;;;4972565;28;19926;-31
2023/09/16 08:00:45;;;;;;;;;;;17.90;99.90;;;;;;4970158;28;19926;-31
2023/09/16 08:03:12;;;;;;;;;;;18.10;99.90;;;;;;4968534;28;19929;-31
2023/09/16 08:05:38;;;;;;;;;;;18.40;99.90;;;;;;4971618;28;19930;-32
2023/09/16 08:08:05;;;;;;;;;;;18.60;99.90;;;;;;4971974;28;19980;-31
2023/09/16 08:10:32;;;;;;;;;;;18.70;99.90;;;;;;4969535;28;19965;-31
2023/09/16 08:12:58;;;;;;;;;;;18.80;99.90;;;;;;4970302;28;19926;-31
2023/09/16 08:15:25;;;;;;;;;;;18.90;99.90;;;;;;4971553;28;19927;-32
2023/09/16 08:17:54;;;;;;;;;;;18.90;99.90;;;;;;4969861;28;19927;-32
2023/09/16 08:20:21;;;;;;;;;;;19.00;99.90;;;;;;4969650;28;19926;-31
2023/09/16 08:22:48;;;;;;;;;;;19.10;99.90;;;;;;4969131;28;20008;-31
2023/09/16 08:25:15;;;;;;;;;;;19.20;99.90;;;;;;4954258;28;19988;-31
2023/09/16 08:27:41;;;;;;;;;;;19.30;99.90;;;;;;4970235;28;20310;-31
2023/09/16 08:30:08;;;;;;;;;;;19.50;99.90;;;;;;4970374;28;20009;-31
2023/09/16 08:32:38;;;;;;;;;;;19.60;99.90;;;;;;4968138;28;20008;-32
2023/09/16 08:35:07;;;;;;;;;;;19.70;99.90;;;;;;4966867;28;20902;-31
2023/09/16 08:37:37;;;;;;;;;;;19.80;99.90;;;;;;4953908;28;19990;-32
2023/09/16 08:40:04;;;;;;;;;;;19.90;99.90;;;;;;4970064;28;19934;-31
2023/09/16 08:42:33;;;;;;;;;;;20.00;99.90;;;;;;4967845;28;19981;-33
2023/09/16 08:45:00;;;;;;;;;;;20.20;99.90;;;;;;4968360;28;20394;-32
2023/09/16 08:47:28;;;;;;;;;;;20.30;99.90;;;;;;4972072;28;19989;-33
2023/09/16 08:49:56;;;;;;;;;;;20.50;99.90;;;;;;4966640;28;20029;-31
2023/09/16 08:52:24;;;;;;;;;;;20.70;99.90;;;;;;4971168;28;20023;-31
2023/09/16 08:54:51;;;;;;;;;;;20.80;99.90;;;;;;4971887;28;19926;-31
2023/09/16 08:57:18;;;;;;;;;;;21.00;99.90;;;;;;4972538;28;19936;-31
2023/09/16 08:59:44;;;;;;;;;;;21.10;99.90;;;;;;4957864;28;19930;-31
2023/09/16 09:02:11;;;;;;;;;;;21.20;99.90;;;;;;4969073;28;19926;-32
2023/09/16 09:04:38;;;;;;;;;;;21.30;99.90;;;;;;4975324;28;19944;-31
2023/09/16 09:07:04;;;;;;;;;;;21.50;99.90;;;;;;4971138;28;19926;-33
2023/09/16 09:09:32;;;;;;;;;;;21.60;99.90;;;;;;4958623;28;19977;-32
2023/09/16 09:11:59;;;;;;;;;;;21.70;99.90;;;;;;4970745;28;20023;-31
2023/09/16 09:14:26;;;;;;;;;;;21.80;99.90;;;;;;4963039;28;20018;-31
2023/09/16 09:16:53;;;;;;;;;;;22.00;99.90;;;;;;4958269;28;19926;-32
2023/09/16 09:19:20;;;;;;;;;;;22.10;99.90;;;;;;4975082;28;19977;-32
2023/09/16 09:21:46;;;;;;;;;;;22.20;99.90;;;;;;4971049;28;19981;-33
2023/09/16 09:24:13;;;;;;;;;;;22.30;99.90;;;;;;4958327;28;19926;-32
2023/09/16 09:26:41;;;;;;;;;;;22.40;99.90;;;;;;4972728;28;19973;-32
2023/09/16 09:29:10;;;;;;;;;;;22.50;99.90;;;;;;4957735;28;19930;-32
2023/09/16 09:31:37;;;;;;;;;;;22.60;99.90;;;;;;4971801;28;19933;-32
2023/09/16 09:34:03;;;;;;;;;;;22.70;99.90;;;;;;4974595;28;19927;-32
2023/09/16 09:36:32;;;;;;;;;;;22.70;99.90;;;;;;4972979;28;20552;-32
2023/09/16 09:38:59;;;;;;;;;;;22.90;99.90;;;;;;4973863;28;19938;-33
2023/09/16 09:41:26;;;;;;;;;;;22.90;99.90;;;;;;4971437;28;19930;-35
2023/09/16 09:43:54;;;;;;;;;;;23.00;99.90;;;;;;4957281;28;19981;-32
2023/09/16 09:46:21;;;;;;;;;;;23.10;99.90;;;;;;4973825;28;19995;-32
2023/09/16 09:48:48;;;;;;;;;;;23.10;99.90;;;;;;4975728;28;20268;-33
2023/09/16 09:51:16;;;;;;;;;;;23.30;99.90;;;;;;4974319;28;19937;-35
2023/09/16 09:53:44;;;;;;;;;;;23.30;99.90;;;;;;4969945;28;20349;-33
2023/09/16 09:56:10;;;;;;;;;;;23.50;99.90;;;;;;4974396;28;20017;-32
2023/09/16 09:58:37;;;;;;;;;;;23.60;99.90;;;;;;4973965;28;19933;-33
2023/09/16 10:01:05;;;;;;;;;;;23.70;99.90;;;;;;4969440;28;19926;-33
2023/09/16 10:03:32;;;;;;;;;;;23.70;99.90;;;;;;4967737;28;19926;-31
2023/09/16 10:05:58;;;;;;;;;;;23.80;99.90;;;;;;4971872;28;20441;-32
2023/09/16 10:08:25;;;;;;;;;;;23.90;99.90;;;;;;4970226;28;20437;-35
2023/09/16 10:10:54;;;;;;;;;;;24.00;99.90;;;;;;4975143;28;19934;-32
2023/09/16 10:13:20;;;;;;;;;;;24.10;99.90;;;;;;4973219;28;19961;-33
2023/09/16 10:15:47;;;;;;;;;;;24.20;99.90;;;;;;4973977;28;19934;-33
2023/09/16 10:18:16;;;;;;;;;;;24.30;99.90;;;;;;4975455;28;20007;-32
2023/09/16 10:20:44;;;;;;;;;;;24.30;99.90;;;;;;4975168;28;20417;-33
2023/09/16 10:23:10;;;;;;;;;;;24.40;99.90;;;;;;4972681;28;20305;-34
2023/09/16 10:25:37;;;;;;;;;;;24.50;99.90;;;;;;4959403;28;20449;-32
2023/09/16 10:28:07;;;;;;;;;;;24.60;99.90;;;;;;4974722;28;19926;-31
2023/09/16 10:30:34;;;;;;;;;;;24.70;99.90;;;;;;4972751;28;19948;-32
2023/09/16 10:33:01;;;;;;;;;;;24.70;99.90;;;;;;4969930;28;19930;-31
2023/09/16 10:35:29;;;;;;;;;;;24.80;99.90;;;;;;4974004;28;19934;-33
2023/09/16 10:37:57;;;;;;;;;;;24.90;99.90;;;;;;4972486;28;19934;-32
2023/09/16 10:40:24;;;;;;;;;;;25.00;99.90;;;;;;4952820;28;19952;-32
2023/09/16 10:42:51;;;;;;;;;;;25.10;99.90;;;;;;4973622;28;20390;-34
2023/09/16 10:45:17;;;;;;;;;;;25.10;99.90;;;;;;4974376;28;19926;-32
2023/09/16 10:47:45;;;;;;;;;;;25.10;99.90;;;;;;4972695;28;19934;-32
2023/09/16 10:50:12;;;;;;;;;;;25.10;99.90;;;;;;4979328;28;19933;-32
2023/09/16 10:52:42;;;;;;;;;;;25.10;99.90;;;;;;4954545;28;20178;-32
2023/09/16 10:55:10;;;;;;;;;;;25.10;99.90;;;;;;4955450;28;20061;-33
2023/09/16 10:57:38;;;;;;;;;;;25.10;99.90;;;;;;4973457;28;20378;-32
2023/09/16 11:00:04;;;;;;;;;;;25.10;99.90;;;;;;4971677;28;19992;-32
2023/09/16 11:02:32;;;;;;;;;;;25.10;99.90;;;;;;4971460;28;19934;-33
2023/09/16 11:04:59;;;;;;;;;;;25.20;99.90;;;;;;4972512;28;19969;-33
2023/09/16 11:07:26;;;;;;;;;;;25.30;99.90;;;;;;4972678;28;20383;-32
2023/09/16 11:09:54;;;;;;;;;;;25.40;99.90;;;;;;4956741;28;19993;-32
2023/09/16 11:12:20;;;;;;;;;;;25.50;98.90;;;;;;4973016;28;20337;-32
2023/09/16 11:14:47;;;;;;;;;;;25.50;99.90;;;;;;4974742;28;21071;-32
2023/09/16 11:17:14;;;;;;;;;;;25.50;99.90;;;;;;4972405;28;20358;-32
2023/09/16 11:19:41;;;;;;;;;;;25.60;98.80;;;;;;4970502;28;19926;-32
2023/09/16 11:22:08;;;;;;;;;;;25.70;99.20;;;;;;4969404;28;19926;-33
2023/09/16 11:24:34;;;;;;;;;;;25.80;99.20;;;;;;4965533;28;19926;-32
2023/09/16 11:27:02;;;;;;;;;;;25.90;99.40;;;;;;4970586;28;19926;-32
2023/09/16 11:29:31;;;;;;;;;;;26.10;99.10;;;;;;4956920;28;19926;-31
2023/09/16 11:31:57;;;;;;;;;;;26.20;98.60;;;;;;4972536;28;19953;-32
2023/09/16 11:34:24;;;;;;;;;;;26.30;98.00;;;;;;4972312;28;20314;-31
2023/09/16 11:36:51;;;;;;;;;;;26.40;96.60;;;;;;4973207;28;19978;-32
2023/09/16 11:39:21;;;;;;;;;;;26.40;96.00;;;;;;4970606;28;19927;-31
2023/09/16 11:41:48;;;;;;;;;;;26.40;97.00;;;;;;4971999;28;19926;-32
2023/09/16 11:44:16;;;;;;;;;;;26.50;96.30;;;;;;4972920;28;19926;-32
2023/09/16 11:46:42;;;;;;;;;;;26.40;96.50;;;;;;4974649;28;20290;-32
2023/09/16 11:49:09;;;;;;;;;;;26.40;96.60;;;;;;4973144;28;19927;-31
2023/09/16 11:51:36;;;;;;;;;;;26.40;97.10;;;;;;4973591;28;19926;-32
2023/09/16 11:54:03;;;;;;;;;;;26.50;97.10;;;;;;4963561;28;19926;-33
2023/09/16 11:56:30;;;;;;;;;;;26.70;96.20;;;;;;4972011;28;19981;-31
2023/09/16 11:58:58;;;;;;;;;;;26.80;96.40;;;;;;4969313;28;19926;-32
2023/09/16 12:01:29;;;;;;;;;;;27.00;95.40;;;;;;4972250;28;20390;-32
2023/09/16 12:03:55;;;;;;;;;;;27.00;95.50;;;;;;4972802;28;19926;-33
2023/09/16 12:06:22;;;;;;;;;;;27.00;96.20;;;;;;4972961;28;19930;-33
2023/09/16 12:08:48;;;;;;;;;;;27.10;95.20;;;;;;4971620;28;19953;-32
2023/09/16 12:11:15;;;;;;;;;;;27.10;95.80;;;;;;4970545;28;19926;-32
2023/09/16 12:13:42;;;;;;;;;;;27.10;95.30;;;;;;4971772;28;19926;-32
2023/09/16 12:16:09;;;;;;;;;;;27.10;95.60;;;;;;4972617;28;20322;-32
2023/09/16 12:18:37;;;;;;;;;;;27.10;95.60;;;;;;4971661;28;20360;-32
2023/09/16 12:21:05;;;;;;;;;;;27.10;95.50;;;;;;4973824;28;19926;-32
2023/09/16 12:23:32;;;;;;;;;;;27.10;96.00;;;;;;4972316;28;20386;-33
2023/09/16 12:25:58;;;;;;;;;;;27.10;95.40;;;;;;4970911;28;19929;-32
2023/09/16 12:28:25;;;;;;;;;;;27.10;95.30;;;;;;4972046;28;19926;-33
2023/09/16 12:30:52;;;;;;;;;;;27.10;95.40;;;;;;4973804;28;20268;-33
2023/09/16 12:33:19;;;;;;;;;;;27.10;95.80;;;;;;4972571;28;19926;-34
2023/09/16 12:35:47;;;;;;;;;;;27.10;94.80;;;;;;4954337;28;20290;-32
2023/09/16 12:38:15;;;;;;;;;;;27.10;95.20;;;;;;4971233;28;19926;-32
2023/09/16 12:40:41;;;;;;;;;;;27.10;95.40;;;;;;4966624;28;20287;-33
2023/09/16 12:43:08;;;;;;;;;;;27.20;95.10;;;;;;4973591;28;20358;-33
2023/09/16 12:45:36;;;;;;;;;;;27.40;94.90;;;;;;4973513;28;20341;-32
2023/09/16 12:48:03;;;;;;;;;;;27.40;94.50;;;;;;4968834;28;19936;-32
2023/09/16 12:50:29;;;;;;;;;;;27.50;95.10;;;;;;4971666;28;19926;-33
2023/09/16 12:52:57;;;;;;;;;;;27.60;94.60;;;;;;4971396;28;19969;-32
2023/09/16 12:55:24;;;;;;;;;;;27.60;94.60;;;;;;4952815;29;19926;-32
2023/09/16 12:57:50;;;;;;;;;;;27.70;93.90;;;;;;4959382;28;20359;-33
2023/09/16 13:00:19;;;;;;;;;;;27.80;93.90;;;;;;4971457;28;20001;-32
2023/09/16 13:02:46;;;;;;;;;;;27.80;93.40;;;;;;4969287;28;19926;-33
2023/09/16 13:05:15;;;;;;;;;;;27.90;93.60;;;;;;4966752;28;19946;-32
2023/09/16 13:07:41;;;;;;;;;;;28.00;93.80;;;;;;4934336;29;19965;-33
2023/09/16 13:10:10;;;;;;;;;;;28.00;94.10;;;;;;4935591;29;19926;-33
2023/09/16 13:12:36;;;;;;;;;;;28.00;93.80;;;;;;4944745;28;19972;-31
2023/09/16 13:15:03;;;;;;;;;;;28.10;92.80;;;;;;4969816;28;20014;-33
2023/09/16 13:17:32;;;;;;;;;;;28.10;93.30;;;;;;4973064;28;19989;-33
2023/09/16 13:20:00;;;;;;;;;;;28.20;93.80;;;;;;4973110;28;19973;-34
2023/09/16 13:22:27;;;;;;;;;;;28.30;93.20;;;;;;4954101;28;20053;-31
2023/09/16 13:24:53;;;;;;;;;;;28.20;93.20;;;;;;4955602;28;19931;-35
2023/09/16 13:27:24;;;;;;;;;;;28.10;93.50;;;;;;4953914;29;19997;-32
2023/09/16 13:29:59;;;;;;;;;;;28.10;93.60;;;;;;4947350;28;19993;-35
2023/09/16 13:32:25;;;;;;;;;;;28.10;93.40;;;;;;4970539;28;20299;-32
2023/09/16 13:34:55;;;;;;;;;;;27.90;93.10;;;;;;4971407;28;20183;-32
2023/09/16 13:37:21;;;;;;;;;;;27.80;93.40;;;;;;4973247;28;19930;-32
2023/09/16 13:39:48;;;;;;;;;;;27.80;93.30;;;;;;4975536;28;19927;-32
2023/09/16 13:42:15;;;;;;;;;;;27.80;92.30;;;;;;4975664;28;19926;-32
2023/09/16 13:44:47;;;;;;;;;;;27.80;92.30;;;;;;4974199;28;19930;-33
2023/09/16 13:47:13;;;;;;;;;;;27.80;93.00;;;;;;4973864;28;19926;-32
2023/09/16 13:49:40;;;;;;;;;;;27.90;92.80;;;;;;4959247;28;19933;-35
2023/09/16 13:52:07;;;;;;;;;;;28.00;93.00;;;;;;4976210;28;19973;-34
2023/09/16 13:54:33;;;;;;;;;;;28.00;93.50;;;;;;4961268;28;19927;-32
2023/09/16 13:57:01;;;;;;;;;;;28.00;92.90;;;;;;4971811;28;19977;-33
2023/09/16 13:59:28;;;;;;;;;;;28.00;92.80;;;;;;4971971;28;19933;-36
2023/09/16 14:01:56;;;;;;;;;;;28.00;92.80;;;;;;4971910;28;20040;-33
2023/09/16 14:04:22;;;;;;;;;;;28.00;92.40;;;;;;4967039;28;20666;-32
2023/09/16 14:06:49;;;;;;;;;;;28.00;92.40;;;;;;4974435;28;20358;-32
2023/09/16 14:09:15;;;;;;;;;;;28.10;92.90;;;;;;4976175;28;19934;-32
2023/09/16 14:11:42;;;;;;;;;;;28.10;92.30;;;;;;4974567;28;19930;-32
2023/09/16 14:14:09;;;;;;;;;;;28.10;93.00;;;;;;4956927;28;20402;-32
2023/09/16 14:16:35;;;;;;;;;;;28.10;92.70;;;;;;4975061;28;19926;-32